createdAt,value
2019-04-04T00:01:19.339Z,4.94
2019-04-04T00:03:47.872Z,4.92
2019-04-04T00:06:16.411Z,4.83
2019-04-04T00:08:45.091Z,4.79
2019-04-04T00:11:13.557Z,4.77
2019-04-04T00:13:42.606Z,4.74
2019-04-04T00:16:11.209Z,4.73
2019-04-04T00:18:39.674Z,4.71
2019-04-04T00:21:10.367Z,4.69
2019-04-04T00:23:38.603Z,4.70
2019-04-04T00:26:08.854Z,4.69
2019-04-04T00:28:37.492Z,4.68
2019-04-04T00:31:06.030Z,4.67
2019-04-04T00:33:34.623Z,4.65
2019-04-04T00:36:03.366Z,4.68
2019-04-04T00:38:32.182Z,4.66
2019-04-04T00:41:00.763Z,4.68
2019-04-04T00:43:29.251Z,4.69
2019-04-04T00:46:00.454Z,4.71
2019-04-04T00:48:28.069Z,4.71
2019-04-04T00:50:56.612Z,4.71
2019-04-04T00:53:25.187Z,4.72
2019-04-04T00:55:53.645Z,4.70
2019-04-04T00:58:22.136Z,4.71
2019-04-04T01:00:50.673Z,4.74
2019-04-04T01:03:20.788Z,4.76
2019-04-04T01:05:49.390Z,4.75
2019-04-04T01:08:17.903Z,4.74
2019-04-04T01:10:49.522Z,4.71
2019-04-04T01:13:16.806Z,4.69
2019-04-04T01:15:45.476Z,4.68
2019-04-04T01:18:13.936Z,4.66
2019-04-04T01:20:42.467Z,4.68
2019-04-04T01:23:11.056Z,4.69
2019-04-04T01:25:39.527Z,4.74
2019-04-04T01:28:08.732Z,4.73
2019-04-04T01:30:37.793Z,4.73
2019-04-04T01:33:06.406Z,4.74
2019-04-04T01:35:36.217Z,4.75
2019-04-04T01:38:04.880Z,4.76
2019-04-04T01:40:33.864Z,4.79
2019-04-04T01:43:02.557Z,4.74
2019-04-04T01:45:31.172Z,4.70
2019-04-04T01:47:59.771Z,4.69
2019-04-04T01:50:28.238Z,4.67
2019-04-04T01:52:58.824Z,4.66
2019-04-04T01:55:26.900Z,4.59
2019-04-04T01:57:55.507Z,4.54
2019-04-04T02:00:24.152Z,4.53
2019-04-04T02:02:55.617Z,4.52
2019-04-04T02:05:26.715Z,4.46
2019-04-04T02:07:54.603Z,4.39
2019-04-04T02:10:23.206Z,4.33
2019-04-04T02:12:51.751Z,4.30
2019-04-04T02:15:20.293Z,4.27
2019-04-04T02:17:48.791Z,4.27
2019-04-04T02:20:17.328Z,4.22
2019-04-04T02:22:45.868Z,4.18
2019-04-04T02:25:14.483Z,4.14
2019-04-04T02:27:43.019Z,4.10
2019-04-04T02:30:15.218Z,4.07
2019-04-04T02:32:42.122Z,4.03
2019-04-04T02:35:11.748Z,4.01
2019-04-04T02:37:40.850Z,4.00
2019-04-04T02:40:10.273Z,3.97
2019-04-04T02:42:39.644Z,3.95
2019-04-04T02:45:08.703Z,3.92
2019-04-04T02:47:37.722Z,3.88
2019-04-04T02:50:08.561Z,3.86
2019-04-04T02:52:37.175Z,3.88
2019-04-04T02:55:06.485Z,3.87
2019-04-04T02:57:35.745Z,3.88
2019-04-04T03:00:05.696Z,3.88
2019-04-04T03:02:36.172Z,3.90
2019-04-04T03:05:05.946Z,3.90
2019-04-04T03:07:34.563Z,3.88
2019-04-04T03:10:03.531Z,3.87
2019-04-04T03:12:32.535Z,3.84
2019-04-04T03:15:01.235Z,3.84
2019-04-04T03:17:32.681Z,3.84
2019-04-04T03:20:00.137Z,3.87
2019-04-04T03:22:28.664Z,3.91
2019-04-04T03:24:57.200Z,3.96
2019-04-04T03:27:27.410Z,4.03
2019-04-04T03:29:55.926Z,4.09
2019-04-04T03:32:24.739Z,4.12
2019-04-04T03:34:53.354Z,4.17
2019-04-04T03:37:21.901Z,4.20
2019-04-04T03:39:52.963Z,4.23
2019-04-04T03:42:20.922Z,4.25
2019-04-04T03:44:52.833Z,4.23
2019-04-04T03:47:19.739Z,4.18
2019-04-04T03:49:48.195Z,4.17
2019-04-04T03:52:16.734Z,4.16
2019-04-04T03:54:45.343Z,4.15
2019-04-04T03:57:13.882Z,4.11
2019-04-04T03:59:42.365Z,4.08
2019-04-04T04:02:10.976Z,4.05
2019-04-04T04:04:39.632Z,4.03
2019-04-04T04:07:08.114Z,4.04
2019-04-04T04:09:36.559Z,4.03
2019-04-04T04:12:05.172Z,4.03
2019-04-04T04:14:33.904Z,4.04
2019-04-04T04:17:02.488Z,4.04
2019-04-04T04:19:31.538Z,4.04
2019-04-04T04:22:00.314Z,4.06
2019-04-04T04:24:29.849Z,4.06
2019-04-04T04:26:59.021Z,4.06
2019-04-04T04:29:29.866Z,4.05
2019-04-04T04:31:57.787Z,4.04
2019-04-04T04:34:26.316Z,4.04
2019-04-04T04:36:54.975Z,4.03
2019-04-04T04:39:23.513Z,4.03
2019-04-04T04:41:54.194Z,4.04
2019-04-04T04:44:22.445Z,4.04
2019-04-04T04:46:51.244Z,4.03
2019-04-04T04:49:23.179Z,4.04
2019-04-04T04:51:50.051Z,4.02
2019-04-04T04:54:20.466Z,4.03
2019-04-04T04:56:48.919Z,4.04
2019-04-04T04:59:17.381Z,4.05
2019-04-04T05:01:45.925Z,4.09
2019-04-04T05:04:15.634Z,4.16
2019-04-04T05:06:44.102Z,4.18
2019-04-04T05:09:14.107Z,4.21
2019-04-04T05:11:42.920Z,4.26
2019-04-04T05:14:11.545Z,4.27
2019-04-04T05:16:40.149Z,4.28
2019-04-04T05:19:08.616Z,4.36
2019-04-04T05:21:37.174Z,4.47
2019-04-04T05:24:05.840Z,4.61
2019-04-04T05:26:35.534Z,4.74
2019-04-04T05:29:04.803Z,4.93
2019-04-04T05:31:33.396Z,5.11
2019-04-04T05:34:02.048Z,5.28
2019-04-04T05:36:30.639Z,5.47
2019-04-04T05:38:59.273Z,5.67
2019-04-04T05:41:28.132Z,5.86
2019-04-04T05:43:58.111Z,6.10
2019-04-04T05:46:26.658Z,6.35
2019-04-04T05:48:55.213Z,6.61
2019-04-04T05:51:23.754Z,6.88
2019-04-04T05:53:52.276Z,7.15
2019-04-04T05:56:23.926Z,7.41
2019-04-04T05:58:53.143Z,7.72
2019-04-04T06:01:22.873Z,8.02
2019-04-04T06:03:51.508Z,8.28
2019-04-04T06:06:20.057Z,8.51
2019-04-04T06:08:49.685Z,8.73
2019-04-04T06:11:20.858Z,8.98
2019-04-04T06:13:48.651Z,9.23
2019-04-04T06:16:17.137Z,9.47
2019-04-04T06:18:45.611Z,9.68
2019-04-04T06:21:14.155Z,9.91
2019-04-04T06:23:42.699Z,10.11
2019-04-04T06:26:11.243Z,10.26
2019-04-04T06:28:39.869Z,10.35
2019-04-04T06:31:08.548Z,10.40
2019-04-04T06:33:37.162Z,10.46
2019-04-04T06:36:05.773Z,10.50
2019-04-04T06:38:34.322Z,10.58
2019-04-04T06:41:03.063Z,10.66
2019-04-04T06:43:31.656Z,10.70
2019-04-04T06:46:00.197Z,10.72
2019-04-04T06:48:29.384Z,10.80
2019-04-04T06:50:58.990Z,10.79
2019-04-04T06:53:27.468Z,10.88
2019-04-04T06:55:56.102Z,10.97
2019-04-04T06:58:24.639Z,11.12
2019-04-04T07:00:53.297Z,11.35
2019-04-04T07:03:21.917Z,11.57
2019-04-04T07:05:50.533Z,11.80
2019-04-04T07:08:19.084Z,12.02
2019-04-04T07:10:57.319Z,12.06
2019-04-04T07:13:22.004Z,12.01
2019-04-04T07:16:05.633Z,12.01
2019-04-04T07:18:20.114Z,12.15
2019-04-04T07:20:48.973Z,12.39
2019-04-04T07:23:17.652Z,12.61
2019-04-04T07:25:46.266Z,12.85
2019-04-04T07:28:19.091Z,13.07
2019-04-04T07:30:47.695Z,13.21
2019-04-04T07:33:16.313Z,13.47
2019-04-04T07:35:44.797Z,13.64
2019-04-04T07:38:13.346Z,13.65
2019-04-04T07:40:41.841Z,13.82
2019-04-04T07:43:10.391Z,14.05
2019-04-04T07:45:38.854Z,14.29
2019-04-04T07:48:07.735Z,14.42
2019-04-04T07:50:36.354Z,14.53
2019-04-04T07:53:05.347Z,14.64
2019-04-04T07:55:34.240Z,14.79
2019-04-04T07:58:02.778Z,14.83
2019-04-04T08:00:31.494Z,15.01
2019-04-04T08:03:00.031Z,15.24
2019-04-04T08:05:28.659Z,15.41
2019-04-04T08:07:57.137Z,15.42
2019-04-04T08:10:25.709Z,15.52
2019-04-04T08:12:54.245Z,15.57
2019-04-04T08:15:22.857Z,15.48
2019-04-04T08:17:51.422Z,15.58
2019-04-04T08:20:20.043Z,15.78
2019-04-04T08:22:48.612Z,15.88
2019-04-04T08:25:17.310Z,15.81
2019-04-04T08:27:45.854Z,15.94
2019-04-04T08:30:15.021Z,16.02
2019-04-04T08:32:43.642Z,16.12
2019-04-04T08:35:12.384Z,16.32
2019-04-04T08:37:41.114Z,16.53
2019-04-04T08:40:10.561Z,16.82
2019-04-04T08:42:39.264Z,16.90
2019-04-04T08:45:08.679Z,16.95
2019-04-04T08:47:37.282Z,16.80
2019-04-04T08:50:07.219Z,16.81
2019-04-04T08:52:35.944Z,17.01
2019-04-04T08:55:06.156Z,17.08
2019-04-04T08:57:34.893Z,17.17
2019-04-04T09:00:04.707Z,17.37
2019-04-04T09:02:33.289Z,17.51
2019-04-04T09:05:11.939Z,17.60
2019-04-04T09:07:32.049Z,17.86
2019-04-04T09:10:01.756Z,18.08
2019-04-04T09:12:30.296Z,18.17
2019-04-04T09:14:58.910Z,18.10
2019-04-04T09:17:27.551Z,18.08
2019-04-04T09:19:56.101Z,18.07
2019-04-04T09:22:24.735Z,17.88
2019-04-04T09:24:53.364Z,17.92
2019-04-04T09:27:21.977Z,17.96
2019-04-04T09:29:50.529Z,17.83
2019-04-04T09:32:19.184Z,17.65
2019-04-04T09:34:47.800Z,17.66
2019-04-04T09:37:16.415Z,17.70
2019-04-04T09:39:45.058Z,17.91
2019-04-04T09:42:13.668Z,17.92
2019-04-04T09:44:42.240Z,17.88
2019-04-04T09:47:10.859Z,17.95
2019-04-04T09:49:39.478Z,18.05
2019-04-04T09:52:08.205Z,18.06
2019-04-04T09:54:36.813Z,17.90
2019-04-04T09:57:05.583Z,18.14
2019-04-04T09:59:34.171Z,18.30
2019-04-04T10:02:02.806Z,18.29
2019-04-04T10:04:31.412Z,18.09
2019-04-04T10:07:00.072Z,17.79
2019-04-04T10:09:28.649Z,17.62
2019-04-04T10:11:57.189Z,17.59
2019-04-04T10:14:25.841Z,17.35
2019-04-04T10:16:54.447Z,17.09
2019-04-04T10:19:23.089Z,17.04
2019-04-04T10:21:51.711Z,17.07
2019-04-04T10:24:20.248Z,17.18
2019-04-04T10:26:48.794Z,17.08
2019-04-04T10:29:17.409Z,17.06
2019-04-04T10:31:46.047Z,17.09
2019-04-04T10:34:15.683Z,17.07
2019-04-04T10:36:44.161Z,16.90
2019-04-04T10:39:13.775Z,16.66
2019-04-04T10:41:42.817Z,16.43
2019-04-04T10:44:11.342Z,16.36
2019-04-04T10:46:39.969Z,16.24
2019-04-04T10:49:08.579Z,16.10
2019-04-04T10:51:37.430Z,16.01
2019-04-04T10:54:06.072Z,15.86
2019-04-04T10:56:34.638Z,15.65
2019-04-04T10:59:03.285Z,15.51
2019-04-04T11:01:31.906Z,15.41
2019-04-04T11:04:00.452Z,15.43
2019-04-04T11:06:29.101Z,15.48
2019-04-04T11:08:57.708Z,15.57
2019-04-04T11:11:26.353Z,15.80
2019-04-04T11:13:54.995Z,16.04
2019-04-04T11:16:29.988Z,16.51
2019-04-04T11:18:53.891Z,16.94
2019-04-04T11:21:22.490Z,17.32
2019-04-04T11:23:51.030Z,17.45
2019-04-04T11:26:19.578Z,17.57
2019-04-04T11:28:48.226Z,17.75
2019-04-04T11:31:16.825Z,18.07
2019-04-04T11:33:45.472Z,18.28
2019-04-04T11:36:14.088Z,18.54
2019-04-04T11:38:44.147Z,18.60
2019-04-04T11:41:12.975Z,18.33
2019-04-04T11:43:41.888Z,18.19
2019-04-04T11:46:10.497Z,17.82
2019-04-04T11:48:40.365Z,17.48
2019-04-04T11:51:08.989Z,17.40
2019-04-04T11:53:37.620Z,17.78
2019-04-04T11:56:06.145Z,18.12
2019-04-04T11:58:34.759Z,18.41
2019-04-04T12:01:05.010Z,18.57
2019-04-04T12:03:33.553Z,18.62
2019-04-04T12:06:02.194Z,18.63
2019-04-04T12:08:30.844Z,18.55
2019-04-04T12:10:59.457Z,18.51
2019-04-04T12:13:28.070Z,18.49
2019-04-04T12:15:56.677Z,18.44
2019-04-04T12:18:25.252Z,18.35
2019-04-04T12:20:53.905Z,18.13
2019-04-04T12:23:22.597Z,18.14
2019-04-04T12:25:51.141Z,18.00
2019-04-04T12:28:19.762Z,17.83
2019-04-04T12:30:48.319Z,17.61
2019-04-04T12:33:16.912Z,17.37
2019-04-04T12:35:45.445Z,17.29
2019-04-04T12:38:13.989Z,17.22
2019-04-04T12:40:42.532Z,17.17
2019-04-04T12:43:11.222Z,16.99
2019-04-04T12:45:39.825Z,16.83
2019-04-04T12:48:09.258Z,16.79
2019-04-04T12:50:38.067Z,16.72
2019-04-04T12:53:06.781Z,16.67
2019-04-04T12:55:35.467Z,16.56
2019-04-04T12:58:04.077Z,16.48
2019-04-04T13:00:32.616Z,16.39
2019-04-04T13:03:01.161Z,16.32
2019-04-04T13:05:29.799Z,16.38
2019-04-04T13:07:58.341Z,16.39
2019-04-04T13:10:33.055Z,16.32
2019-04-04T13:12:57.384Z,16.24
2019-04-04T13:15:26.023Z,16.23
2019-04-04T13:17:54.497Z,16.24
2019-04-04T13:20:23.147Z,16.20
2019-04-04T13:22:51.838Z,16.28
2019-04-04T13:25:20.539Z,16.33
2019-04-04T13:27:49.080Z,16.34
2019-04-04T13:30:19.291Z,16.29
2019-04-04T13:32:47.836Z,16.32
2019-04-04T13:35:17.073Z,16.29
2019-04-04T13:37:45.912Z,16.30
2019-04-04T13:40:14.953Z,16.28
2019-04-04T13:42:43.570Z,16.21
2019-04-04T13:45:12.198Z,16.14
2019-04-04T13:47:40.823Z,16.14
2019-04-04T13:50:12.681Z,16.15
2019-04-04T13:52:41.669Z,16.08
2019-04-04T13:55:10.586Z,15.89
2019-04-04T13:57:39.614Z,15.88
2019-04-04T14:00:10.060Z,15.81
2019-04-04T14:02:38.813Z,15.77
2019-04-04T14:05:14.034Z,15.75
2019-04-04T14:07:43.520Z,15.64
2019-04-04T14:10:11.721Z,15.53
2019-04-04T14:12:41.436Z,15.49
2019-04-04T14:15:11.476Z,15.41
2019-04-04T14:17:43.341Z,15.38
2019-04-04T14:20:11.033Z,15.37
2019-04-04T14:22:39.763Z,15.25
2019-04-04T14:25:09.879Z,15.17
2019-04-04T14:27:38.425Z,15.15
2019-04-04T14:30:07.937Z,15.16
2019-04-04T14:32:36.549Z,15.16
2019-04-04T14:35:07.532Z,15.16
2019-04-04T14:37:36.150Z,15.13
2019-04-04T14:40:06.668Z,15.03
2019-04-04T14:42:35.322Z,15.04
2019-04-04T14:45:06.605Z,15.02
2019-04-04T14:47:35.686Z,15.02
2019-04-04T14:50:07.293Z,15.01
2019-04-04T14:52:39.059Z,15.00
2019-04-04T14:55:07.165Z,14.94
2019-04-04T14:57:35.779Z,14.87
2019-04-04T15:00:08.263Z,14.84
2019-04-04T15:02:36.876Z,14.85
2019-04-04T15:05:06.437Z,14.79
2019-04-04T15:07:36.662Z,14.85
2019-04-04T15:10:06.284Z,14.81
2019-04-04T15:12:34.892Z,14.82
2019-04-04T15:15:04.034Z,14.83
2019-04-04T15:17:32.755Z,14.79
2019-04-04T15:20:01.316Z,14.76
2019-04-04T15:22:31.951Z,14.71
2019-04-04T15:25:00.135Z,14.64
2019-04-04T15:27:28.748Z,14.55
2019-04-04T15:29:57.292Z,14.51
2019-04-04T15:32:25.921Z,14.51
2019-04-04T15:34:54.389Z,14.54
2019-04-04T15:37:23.002Z,14.54
2019-04-04T15:39:51.593Z,14.52
2019-04-04T15:42:20.196Z,14.53
2019-04-04T15:44:49.095Z,14.52
2019-04-04T15:47:17.709Z,14.51
2019-04-04T15:49:46.358Z,14.47
2019-04-04T15:52:14.929Z,14.37
2019-04-04T15:54:43.401Z,14.36
2019-04-04T15:57:12.167Z,14.29
2019-04-04T15:59:40.718Z,14.25
2019-04-04T16:02:09.358Z,14.16
2019-04-04T16:04:37.910Z,14.03
2019-04-04T16:07:08.110Z,14.01
2019-04-04T16:09:36.676Z,13.94
2019-04-04T16:12:05.322Z,13.89
2019-04-04T16:14:33.793Z,13.94
2019-04-04T16:17:02.420Z,13.95
2019-04-04T16:19:32.683Z,13.89
2019-04-04T16:22:01.328Z,14.02
2019-04-04T16:24:29.870Z,13.93
2019-04-04T16:26:58.496Z,13.82
2019-04-04T16:29:27.167Z,13.74
2019-04-04T16:31:55.785Z,13.67
2019-04-04T16:34:24.382Z,13.57
2019-04-04T16:36:52.971Z,13.55
2019-04-04T16:39:21.607Z,13.50
2019-04-04T16:42:01.464Z,13.47
2019-04-04T16:44:20.641Z,13.40
2019-04-04T16:46:49.252Z,13.34
2019-04-04T16:49:17.733Z,13.28
2019-04-04T16:51:46.390Z,13.22
2019-04-04T16:54:14.934Z,13.15
2019-04-04T16:56:43.490Z,13.10
2019-04-04T16:59:12.017Z,13.05
2019-04-04T17:01:43.376Z,12.96
2019-04-04T17:04:11.984Z,12.92
2019-04-04T17:06:40.541Z,12.87
2019-04-04T17:09:09.140Z,12.79
2019-04-04T17:11:37.781Z,12.70
2019-04-04T17:14:06.526Z,12.57
2019-04-04T17:16:35.154Z,12.46
2019-04-04T17:19:03.776Z,12.38
2019-04-04T17:21:39.892Z,12.28
2019-04-04T17:24:08.542Z,12.18
2019-04-04T17:26:37.148Z,12.05
2019-04-04T17:29:05.762Z,11.98
2019-04-04T17:31:34.410Z,11.96
2019-04-04T17:34:03.557Z,11.96
2019-04-04T17:36:32.869Z,11.96
2019-04-04T17:39:01.887Z,11.95
2019-04-04T17:41:30.702Z,11.88
2019-04-04T17:43:59.319Z,11.88
2019-04-04T17:46:28.429Z,11.82
2019-04-04T17:48:57.557Z,11.75
2019-04-04T17:51:26.232Z,11.69
2019-04-04T17:53:54.779Z,11.65
2019-04-04T17:56:23.742Z,11.60
2019-04-04T17:58:52.437Z,11.52
2019-04-04T18:01:22.742Z,11.45
2019-04-04T18:03:51.350Z,11.40
2019-04-04T18:06:20.004Z,11.35
2019-04-04T18:08:48.678Z,11.26
2019-04-04T18:11:17.285Z,11.18
2019-04-04T18:13:45.901Z,11.09
2019-04-04T18:16:15.092Z,11.01
2019-04-04T18:18:43.634Z,10.98
2019-04-04T18:21:12.188Z,10.95
2019-04-04T18:23:40.687Z,10.91
2019-04-04T18:26:09.304Z,10.93
2019-04-04T18:28:39.481Z,10.93
2019-04-04T18:31:08.322Z,10.85
2019-04-04T18:33:37.223Z,10.85
2019-04-04T18:36:05.908Z,10.81
2019-04-04T18:38:34.551Z,10.76
2019-04-04T18:41:03.235Z,10.71
2019-04-04T18:43:31.780Z,10.66
2019-04-04T18:46:00.402Z,10.61
2019-04-04T18:48:28.947Z,10.55
2019-04-04T18:50:57.501Z,10.49
2019-04-04T18:53:26.107Z,10.38
2019-04-04T18:55:54.731Z,10.28
2019-04-04T18:58:23.289Z,10.18
2019-04-04T19:00:52.044Z,10.11
2019-04-04T19:03:20.879Z,10.01
2019-04-04T19:05:49.552Z,9.92
2019-04-04T19:08:18.162Z,9.81
2019-04-04T19:10:46.684Z,9.68
2019-04-04T19:13:15.320Z,9.62
2019-04-04T19:15:44.084Z,9.56
2019-04-04T19:18:12.719Z,9.49
2019-04-04T19:20:41.328Z,9.43
2019-04-04T19:23:09.872Z,9.36
2019-04-04T19:25:38.531Z,9.26
2019-04-04T19:28:07.241Z,9.21
2019-04-04T19:30:35.891Z,9.14
2019-04-04T19:33:04.645Z,9.05
2019-04-04T19:35:33.211Z,8.97
2019-04-04T19:38:01.819Z,8.90
2019-04-04T19:40:30.476Z,8.79
2019-04-04T19:42:59.016Z,8.76
2019-04-04T19:45:27.626Z,8.69
2019-04-04T19:47:56.358Z,8.67
2019-04-04T19:50:25.242Z,8.61
2019-04-04T19:52:53.806Z,8.57
2019-04-04T19:55:22.483Z,8.51
2019-04-04T19:57:51.023Z,8.43
2019-04-04T20:00:19.709Z,8.40
2019-04-04T20:02:48.246Z,8.33
2019-04-04T20:05:17.237Z,8.29
2019-04-04T20:07:45.869Z,8.23
2019-04-04T20:10:14.952Z,8.19
2019-04-04T20:12:43.492Z,8.15
2019-04-04T20:15:12.807Z,8.07
2019-04-04T20:17:41.272Z,8.03
2019-04-04T20:20:10.203Z,7.99
2019-04-04T20:22:38.806Z,7.93
2019-04-04T20:25:08.348Z,7.90
2019-04-04T20:27:37.024Z,7.84
2019-04-04T20:30:07.934Z,7.79
2019-04-04T20:32:36.607Z,7.72
2019-04-04T20:35:08.547Z,7.66
2019-04-04T20:37:37.234Z,7.62
2019-04-04T20:40:06.925Z,7.57
2019-04-04T20:42:35.572Z,7.55
2019-04-04T20:45:05.275Z,7.52
2019-04-04T20:47:34.061Z,7.49
2019-04-04T20:50:03.447Z,7.40
2019-04-04T20:52:31.906Z,7.38
2019-04-04T20:55:00.446Z,7.39
2019-04-04T20:57:29.056Z,7.37
2019-04-04T20:59:57.868Z,7.34
2019-04-04T21:02:26.415Z,7.27
2019-04-04T21:04:55.221Z,7.29
2019-04-04T21:07:23.754Z,7.23
2019-04-04T21:09:52.402Z,7.19
2019-04-04T21:12:20.976Z,7.16
2019-04-04T21:14:49.579Z,7.14
2019-04-04T21:17:18.155Z,7.15
2019-04-04T21:19:46.690Z,7.10
2019-04-04T21:22:26.828Z,7.08
2019-04-04T21:24:45.530Z,7.02
2019-04-04T21:27:14.104Z,6.99
2019-04-04T21:29:42.573Z,6.95
2019-04-04T21:32:11.076Z,6.88
2019-04-04T21:34:39.610Z,6.85
2019-04-04T21:37:08.236Z,6.79
2019-04-04T21:39:36.893Z,6.77
2019-04-04T21:42:05.501Z,6.74
2019-04-04T21:44:34.141Z,6.66
2019-04-04T21:47:02.680Z,6.62
2019-04-04T21:49:32.874Z,6.58
2019-04-04T21:52:01.409Z,6.55
2019-04-04T21:54:29.944Z,6.53
2019-04-04T21:56:58.593Z,6.51
2019-04-04T21:59:28.864Z,6.45
2019-04-04T22:01:57.477Z,6.40
2019-04-04T22:04:26.255Z,6.36
2019-04-04T22:06:54.835Z,6.33
2019-04-04T22:09:23.515Z,6.29
2019-04-04T22:11:52.238Z,6.25
2019-04-04T22:14:21.988Z,6.22
2019-04-04T22:16:51.092Z,6.21
2019-04-04T22:19:19.754Z,6.13
2019-04-04T22:21:49.728Z,6.09
2019-04-04T22:24:18.272Z,6.04
2019-04-04T22:26:46.891Z,6.00
2019-04-04T22:29:15.412Z,5.95
2019-04-04T22:31:44.004Z,5.95
2019-04-04T22:34:12.605Z,5.92
2019-04-04T22:36:47.259Z,5.91
2019-04-04T22:39:15.835Z,5.86
2019-04-04T22:41:44.518Z,5.83
2019-04-04T22:44:13.057Z,5.79
2019-04-04T22:46:41.675Z,5.76
2019-04-04T22:49:10.279Z,5.74
2019-04-04T22:51:38.963Z,5.70
2019-04-04T22:54:07.567Z,5.68
2019-04-04T22:56:36.217Z,5.63
2019-04-04T22:59:04.934Z,5.60
2019-04-04T23:01:33.718Z,5.57
2019-04-04T23:04:02.256Z,5.54
2019-04-04T23:06:30.946Z,5.51
2019-04-04T23:08:59.563Z,5.47
2019-04-04T23:11:28.038Z,5.47
2019-04-04T23:13:56.676Z,5.41
2019-04-04T23:16:25.278Z,5.40
2019-04-04T23:18:53.918Z,5.36
2019-04-04T23:21:22.747Z,5.35
2019-04-04T23:23:51.320Z,5.32
2019-04-04T23:26:20.012Z,5.30
2019-04-04T23:28:48.595Z,5.28
2019-04-04T23:31:17.346Z,5.25
2019-04-04T23:33:45.957Z,5.22
2019-04-04T23:36:14.696Z,5.20
2019-04-04T23:38:43.306Z,5.19
2019-04-04T23:41:11.884Z,5.15
2019-04-04T23:43:40.434Z,5.12
2019-04-04T23:46:09.064Z,5.09
2019-04-04T23:48:37.537Z,5.09
2019-04-04T23:51:06.191Z,5.05
2019-04-04T23:53:34.772Z,5.01
2019-04-04T23:56:03.310Z,5.00
2019-04-04T23:58:31.774Z,4.97
